createdAt,value
2022-08-22T00:00:00.922Z,39.9
2022-08-22T00:01:00.919Z,40.4
2022-08-22T00:02:00.683Z,40.6
2022-08-22T00:02:58.874Z,37.8
2022-08-22T00:02:59.340Z,38.8
2022-08-22T00:03:00.352Z,22.4
2022-08-22T00:03:02.139Z,22.9
2022-08-22T00:03:11.355Z,39.4
2022-08-22T00:03:18.620Z,40.5
2022-08-22T00:04:02.014Z,40.2
2022-08-22T00:05:01.312Z,40.4
2022-08-22T00:06:01.002Z,40.6
2022-08-22T00:07:01.066Z,40.9
2022-08-22T00:08:00.782Z,41.3
2022-08-22T00:09:00.494Z,41.5
2022-08-22T00:10:00.210Z,41.3
2022-08-22T00:11:00.034Z,41.1
2022-08-22T00:11:59.789Z,41.2
2022-08-22T00:13:01.519Z,41.3
2022-08-22T00:14:01.842Z,41.1
2022-08-22T00:15:01.235Z,40.6
2022-08-22T00:16:00.858Z,40.7
2022-08-22T00:17:00.784Z,40.6
2022-08-22T00:18:00.557Z,40.7
2022-08-22T00:19:01.572Z,40.4
2022-08-22T00:20:01.272Z,40.4
2022-08-22T00:21:00.975Z,40.1
2022-08-22T00:22:04.784Z,40.2
2022-08-22T00:23:00.603Z,40
2022-08-22T00:24:00.240Z,40.1
2022-08-22T00:25:00.290Z,39.9
2022-08-22T00:25:59.944Z,40.2
2022-08-22T00:27:09.625Z,39.8
2022-08-22T00:28:00.921Z,39.8
2022-08-22T00:29:00.597Z,39.7
2022-08-22T00:30:00.328Z,39.8
2022-08-22T00:31:00.033Z,39.9
2022-08-22T00:32:13.974Z,40
2022-08-22T00:33:01.698Z,40.1
2022-08-22T00:34:00.851Z,40.2
2022-08-22T00:35:00.550Z,39.8
2022-08-22T00:36:00.321Z,39.6
2022-08-22T00:37:00.046Z,39.7
2022-08-22T00:38:00.221Z,40
2022-08-22T00:38:59.940Z,39.6
2022-08-22T00:39:59.613Z,39.5
2022-08-22T00:41:00.697Z,39.5
2022-08-22T00:42:00.369Z,39.7
2022-08-22T00:43:00.015Z,39.8
2022-08-22T00:44:00.007Z,40
2022-08-22T00:44:59.694Z,40
2022-08-22T00:46:01.709Z,40.1
2022-08-22T00:47:02.174Z,40.1
2022-08-22T00:48:01.482Z,40
2022-08-22T00:49:01.275Z,40.2
2022-08-22T00:50:00.963Z,40.2
2022-08-22T00:51:01.985Z,40
2022-08-22T00:52:01.603Z,40
2022-08-22T00:53:00.699Z,40
2022-08-22T00:54:00.376Z,40
2022-08-22T00:55:00.074Z,40
2022-08-22T00:55:59.780Z,40
2022-08-22T00:57:01.512Z,39.9
2022-08-22T00:58:01.218Z,40.2
2022-08-22T00:59:00.911Z,40.4
2022-08-22T01:00:00.897Z,40.2
2022-08-22T01:01:00.843Z,40.5
2022-08-22T01:02:00.763Z,40.3
2022-08-22T01:03:00.433Z,40.2
2022-08-22T01:04:00.154Z,40.1
2022-08-22T01:04:59.830Z,40.1
2022-08-22T01:06:02.522Z,40.3
2022-08-22T01:07:01.430Z,40.5
2022-08-22T01:08:01.241Z,40.4
2022-08-22T01:09:00.976Z,40.5
2022-08-22T01:10:00.220Z,40.3
2022-08-22T01:10:59.977Z,40.5
2022-08-22T01:11:59.781Z,41
2022-08-22T01:13:01.626Z,41
2022-08-22T01:14:01.403Z,41.1
2022-08-22T01:15:01.326Z,41.3
2022-08-22T01:16:01.338Z,41.2
2022-08-22T01:17:01.401Z,40.9
2022-08-22T01:18:01.119Z,41.1
2022-08-22T01:19:00.966Z,41.1
2022-08-22T01:20:00.869Z,41.2
2022-08-22T01:21:00.774Z,41.1
2022-08-22T01:22:00.463Z,41.2
2022-08-22T01:23:00.269Z,41
2022-08-22T01:23:59.967Z,41.1
2022-08-22T01:24:59.752Z,41.1
2022-08-22T01:26:01.313Z,41.1
2022-08-22T01:27:01.141Z,40.8
2022-08-22T01:28:00.991Z,40.8
2022-08-22T01:29:01.422Z,41.1
2022-08-22T01:30:01.198Z,41.1
2022-08-22T01:31:00.862Z,41.5
2022-08-22T01:32:00.516Z,41.5
2022-08-22T01:33:00.230Z,41.4
2022-08-22T01:33:59.853Z,41.9
2022-08-22T01:35:01.682Z,41.9
2022-08-22T01:36:01.353Z,41.6
2022-08-22T01:37:01.044Z,41.8
2022-08-22T01:38:00.769Z,42.1
2022-08-22T01:39:00.584Z,42.2
2022-08-22T01:40:00.407Z,42
2022-08-22T01:41:00.067Z,42.5
2022-08-22T01:41:59.692Z,42.2
2022-08-22T01:43:01.406Z,41.9
2022-08-22T01:44:01.645Z,41.9
2022-08-22T01:45:01.217Z,41.7
2022-08-22T01:46:01.027Z,42
2022-08-22T01:47:00.937Z,42.2
2022-08-22T01:48:00.757Z,42.1
2022-08-22T01:49:01.040Z,42.1
2022-08-22T01:50:00.747Z,42.2
2022-08-22T01:51:00.467Z,42.1
2022-08-22T01:52:00.140Z,42.4
2022-08-22T01:53:00.669Z,42.7
2022-08-22T01:54:00.360Z,43.3
2022-08-22T01:55:00.071Z,43.3
2022-08-22T01:55:59.732Z,43.6
2022-08-22T01:57:01.499Z,43.3
2022-08-22T01:58:01.106Z,43.1
2022-08-22T01:59:01.833Z,43.2
2022-08-22T02:00:00.903Z,43.1
2022-08-22T02:01:00.631Z,42.8
2022-08-22T02:02:00.306Z,42.8
2022-08-22T02:03:03.965Z,43.2
2022-08-22T02:04:01.566Z,43.3
2022-08-22T02:05:01.147Z,43.3
2022-08-22T02:06:00.859Z,43.5
2022-08-22T02:07:00.652Z,43.2
2022-08-22T02:08:07.385Z,43
2022-08-22T02:09:01.370Z,42.8
2022-08-22T02:10:01.079Z,42.7
2022-08-22T02:11:00.772Z,42.5
2022-08-22T02:12:00.762Z,42.6
2022-08-22T02:13:11.035Z,42.7
2022-08-22T02:14:01.479Z,42.6
2022-08-22T02:15:00.812Z,42.6
2022-08-22T02:16:00.446Z,42.5
2022-08-22T02:17:00.109Z,42.5
2022-08-22T02:18:14.523Z,43.1
2022-08-22T02:19:01.208Z,42.8
2022-08-22T02:20:00.872Z,43.7
2022-08-22T02:21:00.549Z,45.2
2022-08-22T02:22:00.859Z,46.2
2022-08-22T02:23:15.215Z,47
2022-08-22T02:24:01.910Z,47.2
2022-08-22T02:25:00.992Z,47.8
2022-08-22T02:26:01.190Z,48.5
2022-08-22T02:27:00.982Z,48.8
2022-08-22T02:28:00.864Z,48.9
2022-08-22T02:29:01.010Z,48.9
2022-08-22T02:29:59.716Z,49.4
2022-08-22T02:31:01.630Z,49.4
2022-08-22T02:32:01.324Z,49.8
2022-08-22T02:33:01.049Z,50.2
2022-08-22T02:34:00.694Z,50.2
2022-08-22T02:35:00.418Z,50.9
2022-08-22T02:36:00.105Z,50.5
2022-08-22T02:36:59.821Z,50.1
2022-08-22T02:38:01.560Z,50.3
2022-08-22T02:39:01.264Z,50.3
2022-08-22T02:40:01.172Z,50.1
2022-08-22T02:41:00.937Z,50.2
2022-08-22T02:42:00.943Z,50.1
2022-08-22T02:43:00.960Z,50.1
2022-08-22T02:44:00.679Z,50.3
2022-08-22T02:45:00.397Z,50.2
2022-08-22T02:46:00.097Z,50.3
2022-08-22T02:46:59.777Z,50.5
2022-08-22T02:48:01.533Z,50.4
2022-08-22T02:49:01.334Z,50.5
2022-08-22T02:50:00.634Z,50.5
2022-08-22T02:51:00.675Z,50.7
2022-08-22T02:52:00.389Z,51.2
2022-08-22T02:53:00.008Z,51.3
2022-08-22T02:53:59.725Z,51.2
2022-08-22T02:55:01.474Z,51.4
2022-08-22T02:56:01.191Z,51.7
2022-08-22T02:57:00.795Z,51.6
2022-08-22T02:58:00.940Z,51.5
2022-08-22T02:59:00.699Z,51.9
2022-08-22T03:00:00.787Z,51.8
2022-08-22T03:01:00.643Z,52.3
2022-08-22T03:02:00.328Z,52.3
2022-08-22T03:02:59.950Z,52.4
2022-08-22T03:03:59.689Z,52.4
2022-08-22T03:04:59.711Z,52.7
2022-08-22T03:06:02.065Z,52.3
2022-08-22T03:07:00.950Z,52.5
2022-08-22T03:08:00.730Z,53.2
2022-08-22T03:09:00.568Z,53.1
2022-08-22T03:10:00.242Z,53.2
2022-08-22T03:11:00.064Z,53.4
2022-08-22T03:11:59.796Z,53.3
2022-08-22T03:13:02.438Z,53.6
2022-08-22T03:14:01.112Z,54.5
2022-08-22T03:15:00.897Z,53.9
2022-08-22T03:16:00.600Z,53.9
2022-08-22T03:17:00.291Z,53.7
2022-08-22T03:18:00.274Z,53.7
2022-08-22T03:19:00.142Z,53.7
2022-08-22T03:19:59.780Z,53.8
2022-08-22T03:21:01.440Z,53.8
2022-08-22T03:22:00.652Z,54.1
2022-08-22T03:23:00.580Z,53.8
2022-08-22T03:24:00.252Z,53.7
2022-08-22T03:24:59.924Z,53.7
2022-08-22T03:25:59.601Z,54.1
2022-08-22T03:27:01.248Z,53.9
2022-08-22T03:28:01.125Z,54
2022-08-22T03:29:00.976Z,53.6
2022-08-22T03:30:01.742Z,53.5
2022-08-22T03:31:01.206Z,53.9
2022-08-22T03:32:00.806Z,53.7
2022-08-22T03:33:00.565Z,53.1
2022-08-22T03:34:00.226Z,53
2022-08-22T03:34:59.898Z,53
2022-08-22T03:35:59.605Z,53
2022-08-22T03:37:01.576Z,52.9
2022-08-22T03:38:01.139Z,53.2
2022-08-22T03:39:00.774Z,53
2022-08-22T03:40:00.603Z,53.2
2022-08-22T03:41:00.467Z,52.9
2022-08-22T03:42:00.123Z,52.8
2022-08-22T03:43:00.171Z,52.5
2022-08-22T03:43:59.852Z,52.1
2022-08-22T03:45:01.518Z,51.9
2022-08-22T03:46:01.345Z,52.2
2022-08-22T03:47:00.557Z,52.3
2022-08-22T03:48:00.488Z,51.8
2022-08-22T03:49:00.722Z,52.2
2022-08-22T03:50:00.415Z,52.2
2022-08-22T03:51:00.074Z,52.5
2022-08-22T03:51:59.804Z,52.4
2022-08-22T03:53:01.551Z,52.6
2022-08-22T03:54:01.260Z,52.8
2022-08-22T03:55:00.919Z,52.8
2022-08-22T03:56:00.613Z,52.9
2022-08-22T03:57:00.566Z,53
2022-08-22T03:58:00.559Z,52.9
2022-08-22T03:59:01.173Z,53.2
2022-08-22T04:00:00.991Z,53.2
2022-08-22T04:01:02.203Z,53.1
2022-08-22T04:02:00.947Z,53.2
2022-08-22T04:03:00.863Z,53.2
2022-08-22T04:04:04.436Z,53.4
2022-08-22T04:05:01.550Z,53.3
2022-08-22T04:06:02.694Z,53.5
2022-08-22T04:07:01.253Z,53.2
2022-08-22T04:08:01.465Z,53.2
2022-08-22T04:09:06.222Z,53.1
2022-08-22T04:10:01.067Z,53.5
2022-08-22T04:11:02.510Z,52.9
2022-08-22T04:12:00.794Z,52.5
2022-08-22T04:13:00.499Z,52.7
2022-08-22T04:14:08.239Z,52.8
2022-08-22T04:15:01.194Z,52.8
2022-08-22T04:16:00.868Z,53.4
2022-08-22T04:17:00.582Z,52.7
2022-08-22T04:18:00.408Z,52.9
2022-08-22T04:19:12.576Z,52.9
2022-08-22T04:20:01.102Z,52.6
2022-08-22T04:21:00.790Z,52.8
2022-08-22T04:22:00.614Z,52.6
2022-08-22T04:23:00.339Z,52.8
2022-08-22T04:24:13.147Z,52.2
2022-08-22T04:25:04.702Z,52.2
2022-08-22T04:26:01.153Z,52
2022-08-22T04:27:01.152Z,52.2
2022-08-22T04:28:00.785Z,52.3
2022-08-22T04:29:00.433Z,52.7
2022-08-22T04:30:00.181Z,53.1
2022-08-22T04:30:59.957Z,53.4
2022-08-22T04:31:59.760Z,53.1
2022-08-22T04:33:01.509Z,53.4
2022-08-22T04:34:01.182Z,53.4
2022-08-22T04:35:00.923Z,53.5
2022-08-22T04:36:00.596Z,53.6
2022-08-22T04:37:00.258Z,53.1
2022-08-22T04:38:00.185Z,53.3
2022-08-22T04:39:00.188Z,53.6
2022-08-22T04:39:59.977Z,53.8
2022-08-22T04:41:04.278Z,53.4
2022-08-22T04:42:16.262Z,53.3
2022-08-22T04:43:01.371Z,52.8
2022-08-22T04:44:00.760Z,52.7
2022-08-22T04:45:00.429Z,52.6
2022-08-22T04:46:00.159Z,52.7
2022-08-22T04:46:59.961Z,52.5
2022-08-22T04:48:00.269Z,52.6
2022-08-22T04:49:00.088Z,52.4
2022-08-22T04:50:01.593Z,52.8
2022-08-22T04:51:00.904Z,52.3
2022-08-22T04:52:00.665Z,52.3
2022-08-22T04:53:00.327Z,52
2022-08-22T04:53:59.963Z,52.1
2022-08-22T04:54:59.747Z,51.9
2022-08-22T04:56:06.658Z,51.9
2022-08-22T04:57:00.739Z,51.8
2022-08-22T04:58:00.582Z,52.2
2022-08-22T04:59:00.769Z,52.8
2022-08-22T05:00:01.344Z,51.5
2022-08-22T05:01:01.170Z,51.2
2022-08-22T05:02:01.255Z,52.5
2022-08-22T05:03:02.211Z,52.4
2022-08-22T05:04:01.002Z,52.1
2022-08-22T05:05:00.681Z,52
2022-08-22T05:06:00.379Z,52
2022-08-22T05:07:00.034Z,51.6
2022-08-22T05:07:59.984Z,51.6
2022-08-22T05:09:00.932Z,51.7
2022-08-22T05:10:00.880Z,51.2
2022-08-22T05:11:00.871Z,51.2
2022-08-22T05:12:00.621Z,51.2
2022-08-22T05:13:00.396Z,51.1
2022-08-22T05:14:00.009Z,51
2022-08-22T05:14:59.745Z,50.9
2022-08-22T05:16:00.778Z,50.9
2022-08-22T05:17:01.078Z,51.2
2022-08-22T05:18:00.710Z,50.4
2022-08-22T05:19:00.482Z,50
2022-08-22T05:20:00.213Z,49.7
2022-08-22T05:20:59.932Z,49.8
2022-08-22T05:21:59.567Z,50.5
2022-08-22T05:23:01.217Z,51
2022-08-22T05:24:02.068Z,50.8
2022-08-22T05:25:01.551Z,50.7
2022-08-22T05:26:01.930Z,50.2
2022-08-22T05:27:01.058Z,49.9
2022-08-22T05:28:00.690Z,49.7
2022-08-22T05:29:00.465Z,49.6
2022-08-22T05:30:00.208Z,49.6
2022-08-22T05:30:59.946Z,49.2
2022-08-22T05:31:59.657Z,49.6
2022-08-22T05:33:01.401Z,49.3
2022-08-22T05:34:00.799Z,49.4
2022-08-22T05:35:00.503Z,49.3
2022-08-22T05:36:00.216Z,49.6
2022-08-22T05:37:00.726Z,49.2
2022-08-22T05:38:00.484Z,49.1
2022-08-22T05:39:00.202Z,48.5
2022-08-22T05:40:00.266Z,48.8
2022-08-22T05:41:00.237Z,48.1
2022-08-22T05:41:59.914Z,48.5
2022-08-22T05:42:59.557Z,48
2022-08-22T05:44:01.255Z,47.9
2022-08-22T05:45:01.065Z,47.9
2022-08-22T05:46:01.793Z,48
2022-08-22T05:47:01.083Z,48.3
2022-08-22T05:48:00.778Z,48.9
2022-08-22T05:49:00.472Z,49.2
2022-08-22T05:50:00.504Z,48.7
2022-08-22T05:51:00.190Z,48.9
2022-08-22T05:51:59.910Z,48.8
2022-08-22T05:52:59.570Z,49.2
2022-08-22T05:54:01.273Z,49.1
2022-08-22T05:55:03.942Z,48.6
2022-08-22T05:56:01.055Z,48.8
2022-08-22T05:57:03.128Z,48.5
2022-08-22T05:58:00.697Z,47.8
2022-08-22T05:59:00.334Z,47.5
2022-08-22T06:00:04.373Z,47.4
2022-08-22T06:01:01.269Z,47.5
2022-08-22T06:02:01.042Z,47.6
2022-08-22T06:03:00.872Z,48
2022-08-22T06:04:00.565Z,48.5
2022-08-22T06:05:11.877Z,48.7
2022-08-22T06:06:01.197Z,48.5
2022-08-22T06:07:01.424Z,48.6
2022-08-22T06:08:02.218Z,48.9
2022-08-22T06:09:01.106Z,48.5
2022-08-22T06:10:09.889Z,48.5
2022-08-22T06:11:00.942Z,48.8
2022-08-22T06:12:00.703Z,48.5
2022-08-22T06:13:00.709Z,48.5
2022-08-22T06:14:00.741Z,47.4
2022-08-22T06:15:12.389Z,47.6
2022-08-22T06:16:01.036Z,49.3
2022-08-22T06:17:00.747Z,49.3
2022-08-22T06:18:00.744Z,49.4
2022-08-22T06:19:00.601Z,50.3
2022-08-22T06:20:13.728Z,50
2022-08-22T06:21:01.393Z,49.1
2022-08-22T06:22:01.139Z,48.9
2022-08-22T06:23:00.757Z,48.9
2022-08-22T06:24:00.625Z,49.1
2022-08-22T06:25:00.243Z,49.3
2022-08-22T06:25:59.872Z,49.8
2022-08-22T06:26:59.683Z,49.4
2022-08-22T06:28:01.388Z,50.1
2022-08-22T06:29:01.039Z,52.1
2022-08-22T06:30:00.812Z,52.2
2022-08-22T06:31:00.639Z,51.6
2022-08-22T06:32:00.346Z,52
2022-08-22T06:33:00.976Z,51.6
2022-08-22T06:34:00.867Z,52.1
2022-08-22T06:35:00.576Z,51.6
2022-08-22T06:36:00.679Z,51.2
2022-08-22T06:37:00.391Z,51.4
2022-08-22T06:38:00.215Z,51.2
2022-08-22T06:38:59.975Z,51.1
2022-08-22T06:39:59.706Z,50.9
2022-08-22T06:41:01.555Z,51.8
2022-08-22T06:42:01.244Z,52
2022-08-22T06:43:00.897Z,51.5
2022-08-22T06:44:00.628Z,49.9
2022-08-22T06:45:00.613Z,50.7
2022-08-22T06:46:00.345Z,50.2
2022-08-22T06:47:00.035Z,49.5
2022-08-22T06:48:00.902Z,50.7
2022-08-22T06:49:00.755Z,51.3
2022-08-22T06:50:00.391Z,51.2
2022-08-22T06:51:00.167Z,51
2022-08-22T06:52:00.190Z,51.1
2022-08-22T06:52:59.870Z,50.9
2022-08-22T06:53:59.573Z,51.1
2022-08-22T06:55:01.331Z,50.8
2022-08-22T06:56:01.007Z,49.7
2022-08-22T06:57:00.717Z,49.7
2022-08-22T06:58:00.582Z,49.7
2022-08-22T06:59:00.320Z,50.5
2022-08-22T07:00:00.289Z,49.7
2022-08-22T07:01:11.862Z,49.7
2022-08-22T07:02:01.179Z,48.8
2022-08-22T07:03:00.967Z,48.6
2022-08-22T07:04:00.645Z,49.1
2022-08-22T07:05:00.305Z,48.7
2022-08-22T07:06:00.121Z,48.3
2022-08-22T07:06:59.779Z,48.4
2022-08-22T07:08:01.505Z,48.3
2022-08-22T07:09:05.556Z,47.4
2022-08-22T07:10:01.535Z,47.8
2022-08-22T07:11:00.803Z,46.6
2022-08-22T07:12:00.391Z,47
2022-08-22T07:13:00.042Z,46.8
2022-08-22T07:14:01.128Z,46.6
2022-08-22T07:15:00.738Z,46.4
2022-08-22T07:16:00.435Z,46.8
2022-08-22T07:17:00.124Z,47.2
2022-08-22T07:18:00.011Z,46.1
2022-08-22T07:18:59.748Z,46.7
2022-08-22T07:20:01.488Z,47.3
2022-08-22T07:21:01.174Z,47.5
2022-08-22T07:22:02.226Z,47.3
2022-08-22T07:23:00.987Z,47.5
2022-08-22T07:24:00.687Z,48.2
2022-08-22T07:25:00.395Z,48
2022-08-22T07:26:00.028Z,48.3
2022-08-22T07:26:59.677Z,48.3
2022-08-22T07:28:01.424Z,48.4
2022-08-22T07:29:02.225Z,48.2
2022-08-22T07:30:00.596Z,49.5
2022-08-22T07:31:01.612Z,49.3
2022-08-22T07:32:01.199Z,48.4
2022-08-22T07:33:25.915Z,48.6
2022-08-22T07:34:01.184Z,48.3
2022-08-22T07:35:00.520Z,48.1
2022-08-22T07:36:01.351Z,48.6
2022-08-22T07:37:01.019Z,48.6
2022-08-22T07:38:01.322Z,49.2
2022-08-22T07:39:01.340Z,48.6
2022-08-22T07:40:01.276Z,48.3
2022-08-22T07:41:04.463Z,48.2
2022-08-22T07:42:00.937Z,47.9
2022-08-22T07:43:00.619Z,47.5
2022-08-22T07:44:00.323Z,47.5
2022-08-22T07:45:00.005Z,47.9
2022-08-22T07:46:08.128Z,48.3
2022-08-22T07:47:01.605Z,47.1
2022-08-22T07:48:01.158Z,47.4
2022-08-22T07:49:09.924Z,46.7
2022-08-22T07:50:00.953Z,47.2
2022-08-22T07:51:12.320Z,46.8
2022-08-22T07:52:00.689Z,47.3
2022-08-22T07:53:00.341Z,47.6
2022-08-22T07:54:00.941Z,47.4
2022-08-22T07:55:00.786Z,47
2022-08-22T07:56:00.605Z,47.2
2022-08-22T07:57:00.290Z,47
2022-08-22T07:58:01.086Z,46.7
2022-08-22T07:59:01.012Z,47
2022-08-22T08:00:00.929Z,47.8
2022-08-22T08:01:00.779Z,47.1
2022-08-22T08:02:00.489Z,46.6
2022-08-22T08:03:00.144Z,46.9
2022-08-22T08:03:59.810Z,47
2022-08-22T08:05:01.569Z,46.9
2022-08-22T08:06:01.225Z,47.4
2022-08-22T08:07:00.968Z,47
2022-08-22T08:08:00.819Z,46.9
2022-08-22T08:09:00.688Z,45.7
2022-08-22T08:10:00.516Z,45.2
2022-08-22T08:11:00.292Z,44.8
2022-08-22T08:11:59.982Z,45.5
2022-08-22T08:13:02.408Z,45.6
2022-08-22T08:14:01.111Z,45.3
2022-08-22T08:15:00.537Z,45.4
2022-08-22T08:16:00.176Z,44.2
2022-08-22T08:16:59.875Z,44.2
2022-08-22T08:17:59.885Z,43.2
2022-08-22T08:18:59.708Z,43.9
2022-08-22T08:20:01.473Z,43.4
2022-08-22T08:21:01.183Z,42.6
2022-08-22T08:22:01.511Z,41.9
2022-08-22T08:23:00.876Z,42.2
2022-08-22T08:24:00.567Z,42.5
2022-08-22T08:25:00.275Z,42.8
2022-08-22T08:25:59.950Z,41.6
2022-08-22T08:26:59.654Z,41.2
2022-08-22T08:28:01.580Z,40.7
2022-08-22T08:29:01.442Z,41.2
2022-08-22T08:30:00.883Z,42.1
2022-08-22T08:31:00.739Z,41.9
2022-08-22T08:32:00.513Z,41.3
2022-08-22T08:33:24.379Z,40.9
2022-08-22T08:34:00.735Z,41.1
2022-08-22T08:35:00.438Z,41.4
2022-08-22T08:36:03.565Z,40.9
2022-08-22T08:37:00.751Z,40.5
2022-08-22T08:38:00.693Z,40
2022-08-22T08:39:00.456Z,40.6
2022-08-22T08:40:00.974Z,40.1
2022-08-22T08:41:00.784Z,38.1
2022-08-22T08:41:59.872Z,39.7
2022-08-22T08:43:02.334Z,41.1
2022-08-22T08:44:01.513Z,42.5
2022-08-22T08:45:01.020Z,42.4
2022-08-22T08:46:00.710Z,41.7
2022-08-22T08:47:01.443Z,41.8
2022-08-22T08:48:01.307Z,41.1
2022-08-22T08:49:01.025Z,41.6
2022-08-22T08:50:01.262Z,41.4
2022-08-22T08:51:02.032Z,41.6
2022-08-22T08:52:00.905Z,39.5
2022-08-22T08:53:00.669Z,39.1
2022-08-22T08:54:00.349Z,39.3
2022-08-22T08:55:00.877Z,39
2022-08-22T08:56:01.791Z,38.2
2022-08-22T08:57:03.420Z,37.8
2022-08-22T08:58:01.597Z,38.2
2022-08-22T08:59:00.822Z,37.3
2022-08-22T09:00:00.527Z,37
2022-08-22T09:01:02.135Z,37.6
2022-08-22T09:02:04.533Z,36.6
2022-08-22T09:03:00.732Z,37
2022-08-22T09:04:01.349Z,37.4
2022-08-22T09:05:00.695Z,36.8
2022-08-22T09:06:00.651Z,37.3
2022-08-22T09:07:06.721Z,37.5
2022-08-22T09:08:01.501Z,37.5
2022-08-22T09:09:01.319Z,34.9
2022-08-22T09:10:00.555Z,35
2022-08-22T09:11:00.263Z,35.7
2022-08-22T09:12:10.174Z,35
2022-08-22T09:13:12.245Z,34.2
2022-08-22T09:14:01.539Z,34.5
2022-08-22T09:15:00.717Z,34.2
2022-08-22T09:16:05.293Z,34
2022-08-22T09:17:13.722Z,34.7
2022-08-22T09:18:01.244Z,35.1
2022-08-22T09:19:01.240Z,34.4
2022-08-22T09:20:02.193Z,34.2
2022-08-22T09:21:01.540Z,34.3
2022-08-22T09:22:01.079Z,33.7
2022-08-22T09:23:00.862Z,33.9
2022-08-22T09:24:00.757Z,34
2022-08-22T09:25:00.766Z,31.3
2022-08-22T09:26:01.489Z,30.3
2022-08-22T09:27:01.189Z,31.3
2022-08-22T09:28:01.243Z,30.1
2022-08-22T09:29:00.993Z,30.3
2022-08-22T09:30:00.918Z,30.4
2022-08-22T09:31:01.088Z,31.2
2022-08-22T09:32:01.102Z,29.6
2022-08-22T09:33:00.812Z,24.5
2022-08-22T09:34:00.498Z,22.5
2022-08-22T09:35:01.462Z,21.5
2022-08-22T09:36:01.097Z,21.2
2022-08-22T09:37:00.848Z,20
2022-08-22T09:38:01.089Z,20.7
2022-08-22T09:39:00.747Z,21.4
2022-08-22T09:40:00.680Z,21.2
2022-08-22T09:41:00.488Z,21.2
2022-08-22T09:42:02.415Z,21.3
2022-08-22T09:43:01.236Z,20.9
2022-08-22T09:44:00.579Z,20.8
2022-08-22T09:45:01.814Z,20.6
2022-08-22T09:46:02.322Z,20.7
2022-08-22T09:47:00.904Z,22.4
2022-08-22T09:48:07.249Z,22.3
2022-08-22T09:49:01.250Z,21.4
2022-08-22T09:50:01.249Z,21.6
2022-08-22T09:51:13.547Z,21.5
2022-08-22T09:52:05.129Z,21.2
2022-08-22T09:53:00.932Z,21.6
2022-08-22T09:54:00.729Z,21.4
2022-08-22T09:55:00.398Z,21.9
2022-08-22T09:56:15.531Z,22
2022-08-22T09:57:00.983Z,21.2
2022-08-22T09:58:00.957Z,22.1
2022-08-22T09:59:00.826Z,21.4
2022-08-22T10:00:00.579Z,21.5
2022-08-22T10:01:00.917Z,20.9
2022-08-22T10:02:00.608Z,20.5
2022-08-22T10:03:02.008Z,20
2022-08-22T10:04:01.954Z,20.2
2022-08-22T10:05:01.035Z,21.1
2022-08-22T10:06:01.010Z,20.1
2022-08-22T10:07:01.062Z,20
2022-08-22T10:08:00.757Z,18.9
2022-08-22T10:09:00.434Z,18.5
2022-08-22T10:10:00.765Z,19.3
2022-08-22T10:11:00.562Z,19.6
2022-08-22T10:12:01.582Z,20.3
2022-08-22T10:13:01.437Z,21.4
2022-08-22T10:14:01.875Z,21.2
2022-08-22T10:15:01.411Z,20.8
2022-08-22T10:16:01.329Z,21.1
2022-08-22T10:17:01.008Z,21.4
2022-08-22T10:18:00.782Z,20
2022-08-22T10:19:00.830Z,19.3
2022-08-22T10:20:00.722Z,19.3
2022-08-22T10:21:00.443Z,19.6
2022-08-22T10:22:00.075Z,19.6
2022-08-22T10:23:00.986Z,19.8
2022-08-22T10:24:00.754Z,19.5
2022-08-22T10:25:00.554Z,20
2022-08-22T10:26:00.287Z,19.6
2022-08-22T10:27:00.074Z,19.6
2022-08-22T10:28:00.719Z,18.9
2022-08-22T10:29:00.747Z,18.9
2022-08-22T10:30:01.724Z,19.7
2022-08-22T10:31:01.954Z,20
2022-08-22T10:32:03.769Z,19.1
2022-08-22T10:33:03.296Z,19.8
2022-08-22T10:34:01.118Z,19.2
2022-08-22T10:35:00.888Z,19.3
2022-08-22T10:36:01.179Z,19.5
2022-08-22T10:37:00.827Z,19.9
2022-08-22T10:38:10.694Z,19.7
2022-08-22T10:39:08.041Z,19.4
2022-08-22T10:40:02.359Z,19.1
2022-08-22T10:41:01.094Z,20
2022-08-22T10:42:01.389Z,20.3
2022-08-22T10:43:10.198Z,21.2
2022-08-22T10:44:01.501Z,20.6
2022-08-22T10:45:02.061Z,19.4
2022-08-22T10:46:01.416Z,18.9
2022-08-22T10:47:01.212Z,19.1
2022-08-22T10:48:13.165Z,19.9
2022-08-22T10:49:07.827Z,20.1
2022-08-22T10:50:00.651Z,19.5
2022-08-22T10:51:00.404Z,19.5
2022-08-22T10:52:09.714Z,18.5
2022-08-22T10:53:14.686Z,18.9
2022-08-22T10:54:01.343Z,18.8
2022-08-22T10:55:01.119Z,18.7
2022-08-22T10:56:01.127Z,17.9
2022-08-22T10:57:00.872Z,17.7
2022-08-22T10:58:00.576Z,18
2022-08-22T10:59:00.575Z,17.5
2022-08-22T11:00:00.285Z,17.5
2022-08-22T11:01:00.558Z,17
2022-08-22T11:02:01.157Z,17.2
2022-08-22T11:03:01.094Z,16.4
2022-08-22T11:04:01.294Z,15.2
2022-08-22T11:05:01.553Z,15.9
2022-08-22T11:06:01.221Z,16.4
2022-08-22T11:07:00.934Z,16.8
2022-08-22T11:08:00.903Z,17.5
2022-08-22T11:09:00.640Z,18.5
2022-08-22T11:10:01.493Z,18.2
2022-08-22T11:11:01.631Z,18.7
2022-08-22T11:12:01.612Z,18.6
2022-08-22T11:13:01.163Z,18.1
2022-08-22T11:14:01.306Z,19.1
2022-08-22T11:15:01.231Z,18.1
2022-08-22T11:16:01.008Z,18.6
2022-08-22T11:17:01.336Z,19.2
2022-08-22T11:18:00.824Z,18.7
2022-08-22T11:19:02.777Z,19.5
2022-08-22T11:20:01.660Z,20.3
2022-08-22T11:21:00.966Z,20.4
2022-08-22T11:22:00.682Z,20
2022-08-22T11:23:00.587Z,20.1
2022-08-22T11:24:01.253Z,19.9
2022-08-22T11:25:04.189Z,19.8
2022-08-22T11:26:00.972Z,20.1
2022-08-22T11:27:01.546Z,20.8
2022-08-22T11:28:01.286Z,21.1
2022-08-22T11:29:02.906Z,20.6
2022-08-22T11:30:02.122Z,20.8
2022-08-22T11:31:01.099Z,21.3
2022-08-22T11:32:05.657Z,21.5
2022-08-22T11:33:01.709Z,21.1
2022-08-22T11:34:00.703Z,20.6
2022-08-22T11:35:00.628Z,20
2022-08-22T11:36:00.559Z,20.3
2022-08-22T11:37:01.004Z,21.1
2022-08-22T11:38:00.624Z,20.2
2022-08-22T11:39:01.153Z,20.4
2022-08-22T11:40:00.776Z,20.3
2022-08-22T11:41:00.860Z,21
2022-08-22T11:42:00.539Z,21.6
2022-08-22T11:43:02.978Z,21.1
2022-08-22T11:44:01.275Z,20.3
2022-08-22T11:45:01.323Z,20.7
2022-08-22T11:46:01.409Z,20.6
2022-08-22T11:47:00.987Z,20.1
2022-08-22T11:48:00.740Z,20.5
2022-08-22T11:49:00.816Z,20.6
2022-08-22T11:50:01.047Z,20.4
2022-08-22T11:51:00.744Z,20.5
2022-08-22T11:52:00.423Z,20
2022-08-22T11:53:01.505Z,20.6
2022-08-22T11:54:00.818Z,21.3
2022-08-22T11:55:00.585Z,21.9
2022-08-22T11:56:00.367Z,21.2
2022-08-22T11:57:01.005Z,21.3
2022-08-22T11:58:01.015Z,21.8
2022-08-22T11:59:00.767Z,22.5
2022-08-22T12:00:00.958Z,22.6
2022-08-22T12:01:00.801Z,23.2
2022-08-22T12:02:01.477Z,24
2022-08-22T12:03:01.742Z,24.3
2022-08-22T12:04:00.686Z,24.5
2022-08-22T12:05:01.623Z,24.8
2022-08-22T12:06:00.709Z,24.7
2022-08-22T12:07:00.530Z,25.9
2022-08-22T12:08:00.566Z,26.1
2022-08-22T12:09:00.785Z,25.9
2022-08-22T12:10:01.365Z,24.8
2022-08-22T12:11:00.790Z,25.4
2022-08-22T12:12:01.253Z,25.9
2022-08-22T12:13:01.552Z,25.9
2022-08-22T12:14:06.375Z,25.9
2022-08-22T12:15:01.585Z,26.3
2022-08-22T12:16:01.302Z,26.8
2022-08-22T12:17:01.106Z,28
2022-08-22T12:18:02.066Z,28
2022-08-22T12:19:07.950Z,28.7
2022-08-22T12:20:16.136Z,28.9
2022-08-22T12:21:00.641Z,29.4
2022-08-22T12:22:00.278Z,30.9
2022-08-22T12:23:00.241Z,30.1
2022-08-22T12:24:19.239Z,31.4
2022-08-22T12:25:03.040Z,31
2022-08-22T12:26:01.265Z,30.8
2022-08-22T12:27:01.449Z,30.4
2022-08-22T12:28:00.746Z,31.3
2022-08-22T12:29:00.546Z,31.4
2022-08-22T12:30:00.189Z,31
2022-08-22T12:31:00.417Z,30.7
2022-08-22T12:32:00.295Z,29.5
2022-08-22T12:33:01.101Z,31
2022-08-22T12:34:00.784Z,29.2
2022-08-22T12:35:00.518Z,29.6
2022-08-22T12:36:00.222Z,28.4
2022-08-22T12:36:59.862Z,29.4
2022-08-22T12:38:01.635Z,30.4
2022-08-22T12:39:01.334Z,30.1
2022-08-22T12:40:01.187Z,29.3
2022-08-22T12:41:00.933Z,30.6
2022-08-22T12:42:00.638Z,29.4
2022-08-22T12:43:00.646Z,27.8
2022-08-22T12:44:01.408Z,27.8
2022-08-22T12:45:00.870Z,28.5
2022-08-22T12:46:01.500Z,28.5
2022-08-22T12:47:01.178Z,29
2022-08-22T12:48:01.148Z,29.4
2022-08-22T12:49:00.836Z,29.1
2022-08-22T12:50:00.646Z,27.7
2022-08-22T12:51:01.158Z,28.2
2022-08-22T12:52:04.380Z,27.3
2022-08-22T12:53:00.836Z,26
2022-08-22T12:54:01.431Z,25.9
2022-08-22T12:55:00.760Z,26.2
2022-08-22T12:56:00.784Z,24.8
2022-08-22T12:57:01.750Z,24
2022-08-22T12:58:01.043Z,26.3
2022-08-22T12:59:01.306Z,23.8
2022-08-22T13:00:01.847Z,24
2022-08-22T13:01:01.390Z,23.5
2022-08-22T13:02:01.182Z,23.7
2022-08-22T13:03:01.502Z,24.4
2022-08-22T13:04:01.394Z,25.2
2022-08-22T13:05:02.067Z,26.4
2022-08-22T13:06:01.009Z,25.4
2022-08-22T13:07:00.643Z,22.6
2022-08-22T13:08:04.420Z,23.1
2022-08-22T13:09:01.531Z,20.5
2022-08-22T13:10:01.028Z,20.3
2022-08-22T13:11:01.243Z,19.7
2022-08-22T13:12:02.340Z,20.2
2022-08-22T13:13:01.047Z,20.2
2022-08-22T13:14:01.013Z,19.8
2022-08-22T13:15:00.743Z,21.3
2022-08-22T13:16:00.454Z,21.5
2022-08-22T13:17:00.463Z,20.8
2022-08-22T13:18:18.882Z,21.6